sensor_id;sensor_type;location;lat;lon;timestamp;P1;durP1;ratioP1;P2;durP2;ratioP2
48522;SDS011;34315;50.150;11.070;2022-10-16T00:03:04;4.78;;;1.40;;
48522;SDS011;34315;50.150;11.070;2022-10-16T00:08:05;2.00;;;1.33;;
48522;SDS011;34315;50.150;11.070;2022-10-16T00:13:06;2.78;;;1.30;;
48522;SDS011;34315;50.150;11.070;2022-10-16T00:18:07;5.15;;;1.30;;
48522;SDS011;34315;50.150;11.070;2022-10-16T00:23:07;2.28;;;1.10;;
48522;SDS011;34315;50.150;11.070;2022-10-16T00:28:08;2.97;;;1.30;;
48522;SDS011;34315;50.150;11.070;2022-10-16T00:33:08;5.28;;;1.63;;
48522;SDS011;34315;50.150;11.070;2022-10-16T00:38:09;5.45;;;1.80;;
48522;SDS011;34315;50.150;11.070;2022-10-16T00:43:13;2.35;;;1.20;;
48522;SDS011;34315;50.150;11.070;2022-10-16T00:48:14;3.97;;;1.10;;
48522;SDS011;34315;50.150;11.070;2022-10-16T00:53:15;4.47;;;1.48;;
48522;SDS011;34315;50.150;11.070;2022-10-16T00:58:16;1.40;;;0.90;;
48522;SDS011;34315;50.150;11.070;2022-10-16T01:03:27;1.20;;;1.10;;
48522;SDS011;34315;50.150;11.070;2022-10-16T01:08:34;2.08;;;1.23;;
48522;SDS011;34315;50.150;11.070;2022-10-16T01:13:50;3.20;;;1.33;;
48522;SDS011;34315;50.150;11.070;2022-10-16T01:18:54;3.22;;;1.42;;
48522;SDS011;34315;50.150;11.070;2022-10-16T01:29:15;4.25;;;1.63;;
48522;SDS011;34315;50.150;11.070;2022-10-16T01:34:20;4.03;;;1.95;;
48522;SDS011;34315;50.150;11.070;2022-10-16T01:39:25;3.40;;;2.03;;
48522;SDS011;34315;50.150;11.070;2022-10-16T01:49:30;1.55;;;1.10;;
48522;SDS011;34315;50.150;11.070;2022-10-16T01:54:33;2.45;;;1.20;;
48522;SDS011;34315;50.150;11.070;2022-10-16T01:59:35;2.30;;;1.30;;
48522;SDS011;34315;50.150;11.070;2022-10-16T02:10:22;5.55;;;1.25;;
48522;SDS011;34315;50.150;11.070;2022-10-16T02:15:24;2.83;;;1.23;;
48522;SDS011;34315;50.150;11.070;2022-10-16T02:20:27;4.00;;;1.00;;
48522;SDS011;34315;50.150;11.070;2022-10-16T02:25:32;2.15;;;0.88;;
48522;SDS011;34315;50.150;11.070;2022-10-16T02:35:58;1.45;;;0.90;;
48522;SDS011;34315;50.150;11.070;2022-10-16T02:40:59;3.40;;;0.80;;
48522;SDS011;34315;50.150;11.070;2022-10-16T02:45:59;1.10;;;0.80;;
48522;SDS011;34315;50.150;11.070;2022-10-16T02:51:00;2.40;;;0.90;;
48522;SDS011;34315;50.150;11.070;2022-10-16T02:56:00;0.90;;;0.70;;
48522;SDS011;34315;50.150;11.070;2022-10-16T03:01:00;1.42;;;0.80;;
48522;SDS011;34315;50.150;11.070;2022-10-16T03:06:01;1.90;;;0.98;;
48522;SDS011;34315;50.150;11.070;2022-10-16T03:11:02;0.88;;;0.80;;
48522;SDS011;34315;50.150;11.070;2022-10-16T03:16:03;1.15;;;0.60;;
48522;SDS011;34315;50.150;11.070;2022-10-16T03:21:03;1.52;;;0.98;;
48522;SDS011;34315;50.150;11.070;2022-10-16T03:26:04;2.20;;;0.90;;
48522;SDS011;34315;50.150;11.070;2022-10-16T03:31:04;2.40;;;1.08;;
48522;SDS011;34315;50.150;11.070;2022-10-16T03:36:05;3.22;;;0.90;;
48522;SDS011;34315;50.150;11.070;2022-10-16T03:41:06;1.13;;;0.95;;
48522;SDS011;34315;50.150;11.070;2022-10-16T03:46:07;2.92;;;1.30;;
48522;SDS011;34315;50.150;11.070;2022-10-16T03:51:08;1.90;;;1.17;;
48522;SDS011;34315;50.150;11.070;2022-10-16T03:56:08;3.45;;;1.20;;
48522;SDS011;34315;50.150;11.070;2022-10-16T04:01:09;3.90;;;1.30;;
48522;SDS011;34315;50.150;11.070;2022-10-16T04:06:09;2.53;;;1.30;;
48522;SDS011;34315;50.150;11.070;2022-10-16T04:11:09;2.75;;;1.30;;
48522;SDS011;34315;50.150;11.070;2022-10-16T04:16:10;2.10;;;1.30;;
48522;SDS011;34315;50.150;11.070;2022-10-16T04:21:10;1.95;;;1.20;;
48522;SDS011;34315;50.150;11.070;2022-10-16T04:26:11;5.50;;;1.52;;
48522;SDS011;34315;50.150;11.070;2022-10-16T04:31:11;2.13;;;1.27;;
48522;SDS011;34315;50.150;11.070;2022-10-16T04:36:11;2.53;;;1.50;;
48522;SDS011;34315;50.150;11.070;2022-10-16T04:41:12;2.28;;;1.42;;
48522;SDS011;34315;50.150;11.070;2022-10-16T04:46:13;2.75;;;1.35;;
48522;SDS011;34315;50.150;11.070;2022-10-16T04:51:13;5.82;;;1.45;;
48522;SDS011;34315;50.150;11.070;2022-10-16T04:56:14;6.13;;;1.35;;
48522;SDS011;34315;50.150;11.070;2022-10-16T05:01:15;3.95;;;2.05;;
48522;SDS011;34315;50.150;11.070;2022-10-16T05:06:15;3.45;;;1.60;;
48522;SDS011;34315;50.150;11.070;2022-10-16T05:11:16;3.42;;;1.60;;
48522;SDS011;34315;50.150;11.070;2022-10-16T05:16:16;3.20;;;1.40;;
48522;SDS011;34315;50.150;11.070;2022-10-16T05:21:17;2.28;;;1.42;;
48522;SDS011;34315;50.150;11.070;2022-10-16T05:26:17;5.68;;;1.60;;
48522;SDS011;34315;50.150;11.070;2022-10-16T05:31:18;2.92;;;1.50;;
48522;SDS011;34315;50.150;11.070;2022-10-16T05:36:19;3.67;;;1.80;;
48522;SDS011;34315;50.150;11.070;2022-10-16T05:41:19;8.18;;;1.80;;
48522;SDS011;34315;50.150;11.070;2022-10-16T05:46:21;3.80;;;1.60;;
48522;SDS011;34315;50.150;11.070;2022-10-16T05:51:22;6.20;;;1.73;;
48522;SDS011;34315;50.150;11.070;2022-10-16T05:56:22;12.68;;;2.63;;
48522;SDS011;34315;50.150;11.070;2022-10-16T06:01:22;2.83;;;1.63;;
48522;SDS011;34315;50.150;11.070;2022-10-16T06:06:25;2.75;;;1.60;;
48522;SDS011;34315;50.150;11.070;2022-10-16T06:11:27;5.93;;;2.00;;
48522;SDS011;34315;50.150;11.070;2022-10-16T06:16:29;3.75;;;1.98;;
48522;SDS011;34315;50.150;11.070;2022-10-16T06:21:30;5.95;;;3.03;;
48522;SDS011;34315;50.150;11.070;2022-10-16T06:26:30;5.82;;;2.30;;
48522;SDS011;34315;50.150;11.070;2022-10-16T06:31:31;3.22;;;2.00;;
48522;SDS011;34315;50.150;11.070;2022-10-16T06:36:33;3.20;;;2.00;;
48522;SDS011;34315;50.150;11.070;2022-10-16T06:41:34;3.92;;;1.95;;
48522;SDS011;34315;50.150;11.070;2022-10-16T06:46:46;3.47;;;2.30;;
48522;SDS011;34315;50.150;11.070;2022-10-16T06:51:47;4.78;;;2.80;;
48522;SDS011;34315;50.150;11.070;2022-10-16T06:56:47;6.13;;;2.40;;
48522;SDS011;34315;50.150;11.070;2022-10-16T07:01:48;7.25;;;4.13;;
48522;SDS011;34315;50.150;11.070;2022-10-16T07:06:48;9.65;;;2.90;;
48522;SDS011;34315;50.150;11.070;2022-10-16T07:11:49;7.28;;;2.58;;
48522;SDS011;34315;50.150;11.070;2022-10-16T07:16:49;6.72;;;2.50;;
48522;SDS011;34315;50.150;11.070;2022-10-16T07:21:50;5.05;;;3.08;;
48522;SDS011;34315;50.150;11.070;2022-10-16T07:26:50;5.55;;;2.42;;
48522;SDS011;34315;50.150;11.070;2022-10-16T07:31:50;5.78;;;2.60;;
48522;SDS011;34315;50.150;11.070;2022-10-16T07:36:51;7.90;;;2.45;;
48522;SDS011;34315;50.150;11.070;2022-10-16T07:41:51;4.60;;;2.63;;
48522;SDS011;34315;50.150;11.070;2022-10-16T07:46:52;6.65;;;2.40;;
48522;SDS011;34315;50.150;11.070;2022-10-16T07:51:52;5.88;;;2.38;;
48522;SDS011;34315;50.150;11.070;2022-10-16T07:56:52;4.47;;;2.78;;
48522;SDS011;34315;50.150;11.070;2022-10-16T08:01:53;4.13;;;2.47;;
48522;SDS011;34315;50.150;11.070;2022-10-16T08:06:53;5.90;;;2.60;;
48522;SDS011;34315;50.150;11.070;2022-10-16T08:11:54;3.05;;;2.08;;
48522;SDS011;34315;50.150;11.070;2022-10-16T08:16:55;4.13;;;1.83;;
48522;SDS011;34315;50.150;11.070;2022-10-16T08:21:55;6.30;;;1.73;;
48522;SDS011;34315;50.150;11.070;2022-10-16T08:26:55;3.88;;;2.00;;
48522;SDS011;34315;50.150;11.070;2022-10-16T08:31:56;4.90;;;2.15;;
48522;SDS011;34315;50.150;11.070;2022-10-16T08:36:56;4.70;;;1.70;;
48522;SDS011;34315;50.150;11.070;2022-10-16T08:42:09;3.85;;;1.73;;
48522;SDS011;34315;50.150;11.070;2022-10-16T08:47:21;4.07;;;1.55;;
48522;SDS011;34315;50.150;11.070;2022-10-16T08:52:25;2.30;;;1.30;;
48522;SDS011;34315;50.150;11.070;2022-10-16T08:57:28;5.10;;;1.88;;
48522;SDS011;34315;50.150;11.070;2022-10-16T09:02:38;4.32;;;1.60;;
48522;SDS011;34315;50.150;11.070;2022-10-16T09:07:49;6.70;;;1.90;;
48522;SDS011;34315;50.150;11.070;2022-10-16T09:23:23;3.53;;;1.85;;
48522;SDS011;34315;50.150;11.070;2022-10-16T09:28:26;4.03;;;1.73;;
48522;SDS011;34315;50.150;11.070;2022-10-16T09:33:33;3.63;;;1.80;;
48522;SDS011;34315;50.150;11.070;2022-10-16T09:38:36;2.40;;;1.60;;
48522;SDS011;34315;50.150;11.070;2022-10-16T09:48:49;5.50;;;1.73;;
48522;SDS011;34315;50.150;11.070;2022-10-16T09:53:54;4.35;;;2.50;;
48522;SDS011;34315;50.150;11.070;2022-10-16T09:58:57;4.80;;;2.33;;
48522;SDS011;34315;50.150;11.070;2022-10-16T10:03:59;3.28;;;2.35;;
48522;SDS011;34315;50.150;11.070;2022-10-16T10:14:52;5.47;;;2.38;;
48522;SDS011;34315;50.150;11.070;2022-10-16T10:19:57;2.85;;;1.65;;
48522;SDS011;34315;50.150;11.070;2022-10-16T10:30:21;4.57;;;1.80;;
48522;SDS011;34315;50.150;11.070;2022-10-16T10:35:48;3.75;;;1.70;;
48522;SDS011;34315;50.150;11.070;2022-10-16T10:47:00;3.80;;;1.63;;
48522;SDS011;34315;50.150;11.070;2022-10-16T10:52:29;3.60;;;1.45;;
48522;SDS011;34315;50.150;11.070;2022-10-16T10:57:36;2.30;;;1.70;;
48522;SDS011;34315;50.150;11.070;2022-10-16T11:02:46;3.38;;;1.67;;
48522;SDS011;34315;50.150;11.070;2022-10-16T11:07:53;3.78;;;2.08;;
48522;SDS011;34315;50.150;11.070;2022-10-16T11:13:04;4.15;;;2.00;;
48522;SDS011;34315;50.150;11.070;2022-10-16T11:23:27;7.90;;;2.10;;
48522;SDS011;34315;50.150;11.070;2022-10-16T11:28:34;5.97;;;2.10;;
48522;SDS011;34315;50.150;11.070;2022-10-16T11:33:52;5.68;;;2.13;;
48522;SDS011;34315;50.150;11.070;2022-10-16T11:38:59;6.32;;;2.13;;
48522;SDS011;34315;50.150;11.070;2022-10-16T11:49:12;4.05;;;2.45;;
48522;SDS011;34315;50.150;11.070;2022-10-16T11:54:24;5.15;;;2.15;;
48522;SDS011;34315;50.150;11.070;2022-10-16T11:59:37;6.15;;;2.40;;
48522;SDS011;34315;50.150;11.070;2022-10-16T12:04:47;3.92;;;2.30;;
48522;SDS011;34315;50.150;11.070;2022-10-16T12:09:52;5.47;;;2.58;;
48522;SDS011;34315;50.150;11.070;2022-10-16T12:15:15;6.63;;;2.28;;
48522;SDS011;34315;50.150;11.070;2022-10-16T12:20:24;6.15;;;1.90;;
48522;SDS011;34315;50.150;11.070;2022-10-16T12:25:33;7.45;;;2.30;;
48522;SDS011;34315;50.150;11.070;2022-10-16T12:30:35;3.88;;;2.20;;
48522;SDS011;34315;50.150;11.070;2022-10-16T12:35:43;3.97;;;1.80;;
48522;SDS011;34315;50.150;11.070;2022-10-16T12:40:45;4.68;;;2.00;;
48522;SDS011;34315;50.150;11.070;2022-10-16T12:45:48;7.35;;;2.10;;
48522;SDS011;34315;50.150;11.070;2022-10-16T12:51:09;6.45;;;1.83;;
48522;SDS011;34315;50.150;11.070;2022-10-16T12:56:22;3.22;;;1.70;;
48522;SDS011;34315;50.150;11.070;2022-10-16T13:01:27;3.47;;;1.60;;
48522;SDS011;34315;50.150;11.070;2022-10-16T13:06:44;2.40;;;1.45;;
48522;SDS011;34315;50.150;11.070;2022-10-16T13:17:08;4.38;;;1.60;;
48522;SDS011;34315;50.150;11.070;2022-10-16T13:22:22;3.33;;;1.52;;
48522;SDS011;34315;50.150;11.070;2022-10-16T13:32:30;4.63;;;1.60;;
48522;SDS011;34315;50.150;11.070;2022-10-16T13:37:30;2.78;;;1.58;;
48522;SDS011;34315;50.150;11.070;2022-10-16T13:42:31;5.07;;;1.58;;
48522;SDS011;34315;50.150;11.070;2022-10-16T13:47:33;1.95;;;1.50;;
48522;SDS011;34315;50.150;11.070;2022-10-16T13:52:33;2.38;;;1.60;;
48522;SDS011;34315;50.150;11.070;2022-10-16T13:57:34;2.70;;;1.67;;
48522;SDS011;34315;50.150;11.070;2022-10-16T14:02:35;4.07;;;1.27;;
48522;SDS011;34315;50.150;11.070;2022-10-16T14:07:38;5.07;;;1.50;;
48522;SDS011;34315;50.150;11.070;2022-10-16T14:12:38;5.47;;;1.70;;
48522;SDS011;34315;50.150;11.070;2022-10-16T14:17:39;5.68;;;2.00;;
48522;SDS011;34315;50.150;11.070;2022-10-16T14:22:44;3.55;;;1.65;;
48522;SDS011;34315;50.150;11.070;2022-10-16T14:27:56;4.68;;;1.67;;
48522;SDS011;34315;50.150;11.070;2022-10-16T14:33:01;3.35;;;1.58;;
48522;SDS011;34315;50.150;11.070;2022-10-16T14:38:06;2.08;;;1.38;;
48522;SDS011;34315;50.150;11.070;2022-10-16T14:43:40;3.78;;;1.40;;
48522;SDS011;34315;50.150;11.070;2022-10-16T14:48:43;2.67;;;1.50;;
48522;SDS011;34315;50.150;11.070;2022-10-16T14:53:47;2.88;;;1.48;;
48522;SDS011;34315;50.150;11.070;2022-10-16T14:58:47;3.38;;;1.65;;
48522;SDS011;34315;50.150;11.070;2022-10-16T15:03:48;2.65;;;1.67;;
48522;SDS011;34315;50.150;11.070;2022-10-16T15:08:49;5.32;;;2.00;;
48522;SDS011;34315;50.150;11.070;2022-10-16T15:13:49;4.75;;;2.17;;
48522;SDS011;34315;50.150;11.070;2022-10-16T15:18:49;22.98;;;14.65;;
48522;SDS011;34315;50.150;11.070;2022-10-16T15:23:50;25.38;;;16.17;;
48522;SDS011;34315;50.150;11.070;2022-10-16T15:28:51;12.80;;;6.45;;
48522;SDS011;34315;50.150;11.070;2022-10-16T15:33:52;12.95;;;7.00;;
48522;SDS011;34315;50.150;11.070;2022-10-16T15:38:56;10.45;;;5.45;;
48522;SDS011;34315;50.150;11.070;2022-10-16T15:43:57;8.15;;;4.43;;
48522;SDS011;34315;50.150;11.070;2022-10-16T15:48:58;6.82;;;4.07;;
48522;SDS011;34315;50.150;11.070;2022-10-16T15:53:58;7.75;;;4.03;;
48522;SDS011;34315;50.150;11.070;2022-10-16T15:59:01;5.80;;;2.80;;
48522;SDS011;34315;50.150;11.070;2022-10-16T16:04:02;7.30;;;2.72;;
48522;SDS011;34315;50.150;11.070;2022-10-16T16:09:04;7.00;;;2.53;;
48522;SDS011;34315;50.150;11.070;2022-10-16T16:14:09;4.53;;;2.00;;
48522;SDS011;34315;50.150;11.070;2022-10-16T16:19:12;8.23;;;2.30;;
48522;SDS011;34315;50.150;11.070;2022-10-16T16:24:13;6.63;;;2.50;;
48522;SDS011;34315;50.150;11.070;2022-10-16T16:29:14;5.90;;;3.05;;
48522;SDS011;34315;50.150;11.070;2022-10-16T16:34:15;7.13;;;3.75;;
48522;SDS011;34315;50.150;11.070;2022-10-16T16:39:16;9.15;;;3.97;;
48522;SDS011;34315;50.150;11.070;2022-10-16T16:44:16;12.90;;;3.90;;
48522;SDS011;34315;50.150;11.070;2022-10-16T16:49:17;8.43;;;2.05;;
48522;SDS011;34315;50.150;11.070;2022-10-16T16:54:17;5.68;;;2.25;;
48522;SDS011;34315;50.150;11.070;2022-10-16T16:59:19;10.40;;;5.47;;
48522;SDS011;34315;50.150;11.070;2022-10-16T17:04:20;10.13;;;5.22;;
48522;SDS011;34315;50.150;11.070;2022-10-16T17:09:21;7.30;;;4.30;;
48522;SDS011;34315;50.150;11.070;2022-10-16T17:14:22;20.08;;;7.35;;
48522;SDS011;34315;50.150;11.070;2022-10-16T17:19:22;12.50;;;5.57;;
48522;SDS011;34315;50.150;11.070;2022-10-16T17:24:23;11.93;;;7.25;;
48522;SDS011;34315;50.150;11.070;2022-10-16T17:29:23;15.98;;;7.20;;
48522;SDS011;34315;50.150;11.070;2022-10-16T17:34:24;14.48;;;5.97;;
48522;SDS011;34315;50.150;11.070;2022-10-16T17:39:24;19.45;;;7.07;;
48522;SDS011;34315;50.150;11.070;2022-10-16T17:44:25;14.07;;;6.25;;
48522;SDS011;34315;50.150;11.070;2022-10-16T17:49:25;8.75;;;4.60;;
48522;SDS011;34315;50.150;11.070;2022-10-16T17:54:26;7.88;;;3.70;;
48522;SDS011;34315;50.150;11.070;2022-10-16T17:59:26;7.75;;;4.18;;
48522;SDS011;34315;50.150;11.070;2022-10-16T18:04:27;10.43;;;4.50;;
48522;SDS011;34315;50.150;11.070;2022-10-16T18:09:28;9.32;;;4.50;;
48522;SDS011;34315;50.150;11.070;2022-10-16T18:14:29;10.65;;;4.80;;
48522;SDS011;34315;50.150;11.070;2022-10-16T18:19:30;10.13;;;4.82;;
48522;SDS011;34315;50.150;11.070;2022-10-16T18:24:31;9.48;;;5.32;;
48522;SDS011;34315;50.150;11.070;2022-10-16T18:29:31;6.97;;;3.92;;
48522;SDS011;34315;50.150;11.070;2022-10-16T18:34:32;8.82;;;3.92;;
48522;SDS011;34315;50.150;11.070;2022-10-16T18:39:35;6.25;;;3.70;;
48522;SDS011;34315;50.150;11.070;2022-10-16T18:44:36;7.55;;;3.50;;
48522;SDS011;34315;50.150;11.070;2022-10-16T18:49:36;7.28;;;3.75;;
48522;SDS011;34315;50.150;11.070;2022-10-16T18:54:37;9.05;;;3.97;;
48522;SDS011;34315;50.150;11.070;2022-10-16T18:59:37;8.52;;;3.55;;
48522;SDS011;34315;50.150;11.070;2022-10-16T19:04:38;7.65;;;3.38;;
48522;SDS011;34315;50.150;11.070;2022-10-16T19:09:39;10.40;;;3.60;;
48522;SDS011;34315;50.150;11.070;2022-10-16T19:14:39;6.20;;;3.55;;
48522;SDS011;34315;50.150;11.070;2022-10-16T19:19:40;11.38;;;3.35;;
48522;SDS011;34315;50.150;11.070;2022-10-16T19:24:40;7.90;;;3.30;;
48522;SDS011;34315;50.150;11.070;2022-10-16T19:29:41;11.90;;;5.47;;
48522;SDS011;34315;50.150;11.070;2022-10-16T19:34:41;10.25;;;5.85;;
48522;SDS011;34315;50.150;11.070;2022-10-16T19:39:42;11.07;;;6.22;;
48522;SDS011;34315;50.150;11.070;2022-10-16T19:44:42;10.35;;;6.18;;
48522;SDS011;34315;50.150;11.070;2022-10-16T19:49:43;11.27;;;5.68;;
48522;SDS011;34315;50.150;11.070;2022-10-16T19:54:43;11.73;;;4.95;;
48522;SDS011;34315;50.150;11.070;2022-10-16T19:59:44;11.60;;;3.60;;
48522;SDS011;34315;50.150;11.070;2022-10-16T20:04:44;10.55;;;4.20;;
48522;SDS011;34315;50.150;11.070;2022-10-16T20:09:45;14.25;;;4.60;;
48522;SDS011;34315;50.150;11.070;2022-10-16T20:14:45;8.48;;;4.20;;
48522;SDS011;34315;50.150;11.070;2022-10-16T20:19:46;6.32;;;3.95;;
48522;SDS011;34315;50.150;11.070;2022-10-16T20:24:46;9.07;;;4.18;;
48522;SDS011;34315;50.150;11.070;2022-10-16T20:29:46;8.80;;;3.92;;
48522;SDS011;34315;50.150;11.070;2022-10-16T20:34:47;7.95;;;4.43;;
48522;SDS011;34315;50.150;11.070;2022-10-16T20:39:48;7.35;;;3.75;;
48522;SDS011;34315;50.150;11.070;2022-10-16T20:44:49;7.82;;;3.45;;
48522;SDS011;34315;50.150;11.070;2022-10-16T20:49:51;8.68;;;3.70;;
48522;SDS011;34315;50.150;11.070;2022-10-16T20:54:51;9.48;;;3.80;;
48522;SDS011;34315;50.150;11.070;2022-10-16T20:59:52;8.07;;;3.80;;
48522;SDS011;34315;50.150;11.070;2022-10-16T21:04:54;11.68;;;3.83;;
48522;SDS011;34315;50.150;11.070;2022-10-16T21:09:55;9.98;;;4.13;;
48522;SDS011;34315;50.150;11.070;2022-10-16T21:14:56;10.77;;;3.92;;
48522;SDS011;34315;50.150;11.070;2022-10-16T21:19:56;11.52;;;4.30;;
48522;SDS011;34315;50.150;11.070;2022-10-16T21:24:56;8.98;;;3.78;;
48522;SDS011;34315;50.150;11.070;2022-10-16T21:29:57;6.75;;;4.18;;
48522;SDS011;34315;50.150;11.070;2022-10-16T21:34:57;9.90;;;4.43;;
48522;SDS011;34315;50.150;11.070;2022-10-16T21:39:58;8.18;;;4.70;;
48522;SDS011;34315;50.150;11.070;2022-10-16T21:44:58;7.00;;;3.90;;
48522;SDS011;34315;50.150;11.070;2022-10-16T21:49:59;8.20;;;4.20;;
48522;SDS011;34315;50.150;11.070;2022-10-16T21:54:59;8.98;;;4.40;;
48522;SDS011;34315;50.150;11.070;2022-10-16T21:59:59;8.02;;;4.32;;
48522;SDS011;34315;50.150;11.070;2022-10-16T22:05:00;9.25;;;4.82;;
48522;SDS011;34315;50.150;11.070;2022-10-16T22:10:00;9.02;;;4.50;;
48522;SDS011;34315;50.150;11.070;2022-10-16T22:15:01;9.23;;;4.38;;
48522;SDS011;34315;50.150;11.070;2022-10-16T22:20:01;8.30;;;4.18;;
48522;SDS011;34315;50.150;11.070;2022-10-16T22:25:02;12.80;;;4.68;;
48522;SDS011;34315;50.150;11.070;2022-10-16T22:30:03;9.10;;;4.97;;
48522;SDS011;34315;50.150;11.070;2022-10-16T22:35:03;7.05;;;4.38;;
48522;SDS011;34315;50.150;11.070;2022-10-16T22:40:04;9.25;;;4.43;;
48522;SDS011;34315;50.150;11.070;2022-10-16T22:45:05;12.32;;;4.13;;
48522;SDS011;34315;50.150;11.070;2022-10-16T22:50:06;9.55;;;3.78;;
48522;SDS011;34315;50.150;11.070;2022-10-16T22:55:07;7.47;;;3.50;;
48522;SDS011;34315;50.150;11.070;2022-10-16T23:00:08;8.48;;;3.92;;
48522;SDS011;34315;50.150;11.070;2022-10-16T23:05:11;8.80;;;4.10;;
48522;SDS011;34315;50.150;11.070;2022-10-16T23:10:11;6.78;;;3.65;;
48522;SDS011;34315;50.150;11.070;2022-10-16T23:15:12;54.75;;;27.70;;
48522;SDS011;34315;50.150;11.070;2022-10-16T23:20:13;21.52;;;9.55;;
48522;SDS011;34315;50.150;11.070;2022-10-16T23:25:13;14.57;;;5.90;;
48522;SDS011;34315;50.150;11.070;2022-10-16T23:30:13;11.32;;;4.50;;
48522;SDS011;34315;50.150;11.070;2022-10-16T23:35:14;10.02;;;4.68;;
48522;SDS011;34315;50.150;11.070;2022-10-16T23:40:14;6.60;;;3.92;;
48522;SDS011;34315;50.150;11.070;2022-10-16T23:45:15;9.45;;;4.85;;
48522;SDS011;34315;50.150;11.070;2022-10-16T23:50:15;10.93;;;4.05;;
48522;SDS011;34315;50.150;11.070;2022-10-16T23:55:16;6.70;;;3.80;;
